createdAt,value
2024-02-18T00:14:25.394Z,0
2024-02-18T00:29:21.931Z,0
2024-02-18T00:44:17.946Z,0
2024-02-18T00:59:14.655Z,0
2024-02-18T01:14:10.923Z,0
2024-02-18T01:29:05.868Z,0
2024-02-18T01:44:01.654Z,0
2024-02-18T01:58:57.409Z,0
2024-02-18T02:13:53.288Z,0
2024-02-18T02:28:49.403Z,0.01
2024-02-18T02:43:45.437Z,0
2024-02-18T02:58:41.307Z,0
2024-02-18T03:13:36.971Z,0
2024-02-18T03:28:32.895Z,0
2024-02-18T03:43:29.305Z,0
2024-02-18T03:58:25.451Z,0
2024-02-18T04:13:21.711Z,0
2024-02-18T04:28:17.656Z,0
2024-02-18T04:43:14.136Z,0
2024-02-18T04:58:10.226Z,0
2024-02-18T05:13:06.336Z,0
2024-02-18T05:28:02.196Z,0
2024-02-18T05:42:58.372Z,0
2024-02-18T05:57:54.351Z,0.01
2024-02-18T06:12:50.593Z,0.01
2024-02-18T06:27:46.865Z,0
2024-02-18T06:42:42.917Z,0.02
2024-02-18T06:57:39.622Z,0.05
2024-02-18T07:12:35.975Z,0.03
2024-02-18T07:27:32.367Z,0.04
2024-02-18T07:42:28.426Z,0.05
2024-02-18T07:57:24.978Z,0
2024-02-18T08:12:21.549Z,0.07
2024-02-18T08:27:18.235Z,0.06
2024-02-18T08:42:15.030Z,0.09
2024-02-18T08:57:11.722Z,0.08
2024-02-18T09:12:08.269Z,0.08
2024-02-18T09:27:04.480Z,0.1
2024-02-18T09:42:00.779Z,0.09
2024-02-18T09:56:56.915Z,0.08
2024-02-18T10:11:53.495Z,0.1
2024-02-18T10:26:49.719Z,0.08
2024-02-18T10:41:45.836Z,0.09
2024-02-18T10:56:42.043Z,0.1
2024-02-18T11:11:38.284Z,0.1
2024-02-18T11:26:34.818Z,0.1
2024-02-18T11:41:31.188Z,0.1
2024-02-18T11:56:27.477Z,0.1
2024-02-18T12:11:23.440Z,0.1
2024-02-18T12:26:19.679Z,0
2024-02-18T12:41:15.720Z,0.08
2024-02-18T12:44:26.083Z,0.08
2024-02-18T12:59:03.752Z,0.08
2024-02-18T13:14:00.216Z,0.05
2024-02-18T13:28:56.185Z,0.06
2024-02-18T13:43:51.726Z,0.05
2024-02-18T13:58:48.208Z,0.04
2024-02-18T14:13:43.877Z,0.05
2024-02-18T14:28:40.379Z,0.03
2024-02-18T14:43:36.638Z,0.05
2024-02-18T14:58:32.195Z,0.03
2024-02-18T15:13:28.307Z,0.03
2024-02-18T15:28:25.166Z,0.04
2024-02-18T15:43:21.763Z,0.05
2024-02-18T15:58:18.152Z,0.03
2024-02-18T16:13:14.153Z,0.04
2024-02-18T16:28:09.990Z,0.05
2024-02-18T16:43:06.511Z,0.03
2024-02-18T16:58:02.356Z,0.02
2024-02-18T17:12:58.663Z,0
2024-02-18T17:27:54.888Z,0
2024-02-18T17:42:50.737Z,0
2024-02-18T17:57:47.165Z,0
2024-02-18T18:12:43.327Z,0
2024-02-18T18:27:39.524Z,0
2024-02-18T18:39:30.398Z,0
2024-02-18T18:54:26.416Z,0
2024-02-18T19:09:22.625Z,0
2024-02-18T19:24:19.196Z,0
2024-02-18T19:39:15.251Z,0
2024-02-18T19:54:11.806Z,0
2024-02-18T20:09:07.589Z,0
2024-02-18T20:24:04.286Z,0
2024-02-18T20:39:00.375Z,0
2024-02-18T20:53:56.724Z,0
2024-02-18T21:08:52.936Z,0
2024-02-18T21:19:32.263Z,0
2024-02-18T21:34:27.794Z,0
2024-02-18T21:49:23.417Z,0
2024-02-18T22:04:19.672Z,0
2024-02-18T22:19:16.291Z,0
2024-02-18T22:34:12.355Z,0
2024-02-18T22:49:08.282Z,0
2024-02-18T23:04:04.714Z,0
2024-02-18T23:19:00.838Z,0
2024-02-18T23:33:57.345Z,0
2024-02-18T23:48:53.592Z,0
